createdAt,value
2018-09-08T00:01:09.195Z,64.26
2018-09-08T00:03:37.650Z,64.67
2018-09-08T00:06:06.150Z,64.33
2018-09-08T00:08:35.654Z,64.69
2018-09-08T00:11:04.191Z,64.45
2018-09-08T00:13:32.617Z,65.08
2018-09-08T00:16:06.478Z,65.65
2018-09-08T00:18:40.164Z,65.79
2018-09-08T00:21:13.974Z,64.84
2018-09-08T00:23:47.687Z,65.83
2018-09-08T00:26:21.374Z,65.69
2018-09-08T00:29:56.091Z,66.00
2018-09-08T00:32:24.430Z,66.08
2018-09-08T00:34:52.767Z,66.82
2018-09-08T00:37:22.183Z,66.34
2018-09-08T00:39:51.676Z,66.43
2018-09-08T00:42:20.381Z,66.29
2018-09-08T00:44:48.756Z,66.26
2018-09-08T00:47:17.123Z,66.58
2018-09-08T00:49:45.440Z,66.43
2018-09-08T00:52:13.766Z,65.74
2018-09-08T00:54:42.100Z,65.96
2018-09-08T00:57:10.474Z,66.41
2018-09-08T00:59:38.824Z,66.21
2018-09-08T01:02:07.265Z,66.43
2018-09-08T01:04:37.404Z,66.47
2018-09-08T01:07:09.934Z,66.91
2018-09-08T01:09:38.513Z,67.20
2018-09-08T01:12:06.898Z,67.02
2018-09-08T01:14:35.230Z,67.33
2018-09-08T01:17:03.560Z,66.93
2018-09-08T01:19:31.887Z,66.52
2018-09-08T01:22:00.234Z,66.00
2018-09-08T01:24:31.248Z,66.81
2018-09-08T01:26:59.625Z,67.12
2018-09-08T01:29:27.977Z,67.39
2018-09-08T01:31:56.308Z,66.72
2018-09-08T01:34:24.628Z,66.73
2018-09-08T01:36:53.202Z,66.39
2018-09-08T01:39:21.781Z,65.93
2018-09-08T01:41:50.136Z,67.21
2018-09-08T01:44:18.484Z,66.74
2018-09-08T01:46:47.019Z,67.86
2018-09-08T01:49:15.358Z,67.08
2018-09-08T01:51:43.863Z,67.05
2018-09-08T01:54:12.381Z,66.28
2018-09-08T01:56:40.945Z,67.17
2018-09-08T01:59:09.556Z,66.70
2018-09-08T02:01:37.928Z,65.73
2018-09-08T02:04:06.263Z,66.75
2018-09-08T02:06:34.584Z,65.72
2018-09-08T02:09:03.167Z,66.06
2018-09-08T02:11:31.552Z,65.82
2018-09-08T02:13:59.915Z,65.87
2018-09-08T02:16:28.294Z,66.12
2018-09-08T02:18:56.664Z,65.53
2018-09-08T02:21:25.024Z,65.74
2018-09-08T02:23:53.339Z,65.46
2018-09-08T02:26:21.685Z,66.53
2018-09-08T02:28:50.159Z,66.53
2018-09-08T02:31:18.505Z,66.67
2018-09-08T02:33:46.859Z,66.59
2018-09-08T02:36:15.208Z,65.50
2018-09-08T02:38:43.588Z,66.57
2018-09-08T02:41:11.952Z,67.05
2018-09-08T02:43:40.306Z,67.22
2018-09-08T02:46:08.684Z,67.65
2018-09-08T02:48:37.044Z,67.09
2018-09-08T02:51:04.315Z,66.97
2018-09-08T02:53:31.583Z,67.93
2018-09-08T02:55:58.845Z,68.01
2018-09-08T02:58:26.100Z,67.99
2018-09-08T03:00:53.379Z,68.94
2018-09-08T03:03:20.650Z,69.16
2018-09-08T03:05:47.901Z,69.13
2018-09-08T03:08:15.151Z,69.74
2018-09-08T03:10:42.406Z,69.80
2018-09-08T03:13:09.659Z,68.83
2018-09-08T03:15:36.913Z,70.11
2018-09-08T03:18:04.165Z,70.11
2018-09-08T03:20:31.448Z,69.19
2018-09-08T03:22:58.701Z,70.47
2018-09-08T03:25:25.958Z,70.90
2018-09-08T03:27:53.234Z,69.96
2018-09-08T03:30:20.504Z,70.80
2018-09-08T03:32:47.753Z,71.33
2018-09-08T03:35:15.005Z,71.00
2018-09-08T03:37:42.261Z,71.79
2018-09-08T03:40:09.498Z,70.98
2018-09-08T03:42:36.764Z,70.20
2018-09-08T03:45:04.008Z,69.68
2018-09-08T03:47:31.255Z,71.06
2018-09-08T03:49:58.508Z,71.52
2018-09-08T03:52:25.896Z,71.11
2018-09-08T03:54:53.148Z,72.03
2018-09-08T03:57:20.400Z,72.14
2018-09-08T03:59:47.661Z,72.77
2018-09-08T04:02:14.904Z,73.46
2018-09-08T04:04:43.360Z,72.95
2018-09-08T04:07:11.690Z,72.93
2018-09-08T04:09:40.480Z,74.04
2018-09-08T04:12:08.840Z,72.59
2018-09-08T04:14:37.238Z,72.68
2018-09-08T04:17:05.604Z,72.25
2018-09-08T04:19:34.392Z,72.83
2018-09-08T04:22:02.768Z,73.92
2018-09-08T04:24:31.179Z,73.62
2018-09-08T04:26:59.517Z,74.38
2018-09-08T04:29:27.927Z,74.12
2018-09-08T04:31:56.250Z,72.82
2018-09-08T04:34:24.628Z,73.93
2018-09-08T04:36:53.414Z,73.02
2018-09-08T04:39:21.763Z,73.57
2018-09-08T04:41:50.108Z,72.18
2018-09-08T04:44:18.460Z,72.08
2018-09-08T04:46:47.069Z,72.31
2018-09-08T04:49:15.415Z,72.51
2018-09-08T04:51:43.815Z,72.50
2018-09-08T04:54:12.171Z,72.03
2018-09-08T04:56:40.503Z,72.29
2018-09-08T04:59:08.849Z,73.68
2018-09-08T05:01:37.204Z,74.29
2018-09-08T05:04:05.520Z,72.70
2018-09-08T05:06:33.864Z,73.46
2018-09-08T05:09:02.212Z,73.15
2018-09-08T05:11:30.570Z,74.93
2018-09-08T05:13:59.338Z,74.71
2018-09-08T05:16:27.685Z,73.26
2018-09-08T05:18:56.033Z,74.29
2018-09-08T05:21:24.381Z,74.60
2018-09-08T05:23:52.721Z,74.07
2018-09-08T05:26:21.052Z,74.17
2018-09-08T05:28:49.480Z,74.16
2018-09-08T05:31:17.806Z,73.81
2018-09-08T05:33:46.199Z,73.04
2018-09-08T05:36:14.599Z,72.89
2018-09-08T05:38:42.958Z,73.27
2018-09-08T05:41:11.356Z,72.80
2018-09-08T05:43:39.687Z,72.42
2018-09-08T05:46:08.046Z,71.56
2018-09-08T05:48:36.852Z,71.23
2018-09-08T05:51:05.254Z,70.88
2018-09-08T05:53:33.809Z,70.08
2018-09-08T05:56:02.124Z,69.92
2018-09-08T05:58:30.532Z,69.04
2018-09-08T06:00:59.484Z,68.25
2018-09-08T06:03:27.854Z,67.97
2018-09-08T06:05:56.222Z,66.15
2018-09-08T06:08:24.535Z,65.74
2018-09-08T06:10:52.880Z,65.85
2018-09-08T06:13:21.206Z,65.25
2018-09-08T06:15:49.534Z,64.04
2018-09-08T06:18:18.379Z,63.97
2018-09-08T06:20:46.708Z,63.86
2018-09-08T06:23:15.048Z,63.31
2018-09-08T06:25:43.413Z,63.58
2018-09-08T06:28:11.774Z,62.30
2018-09-08T06:30:40.115Z,61.74
2018-09-08T06:33:08.487Z,62.81
2018-09-08T06:35:36.839Z,63.24
2018-09-08T06:38:05.213Z,62.41
2018-09-08T06:40:33.758Z,63.49
2018-09-08T06:43:02.114Z,62.11
2018-09-08T06:45:30.501Z,58.13
2018-09-08T06:47:59.329Z,58.22
2018-09-08T06:50:27.711Z,60.52
2018-09-08T06:52:56.209Z,58.50
2018-09-08T06:55:24.562Z,56.21
2018-09-08T06:57:52.953Z,54.70
2018-09-08T07:00:21.297Z,54.92
2018-09-08T07:02:49.628Z,56.81
2018-09-08T07:05:17.976Z,55.80
2018-09-08T07:07:46.324Z,50.96
2018-09-08T07:10:14.701Z,52.96
2018-09-08T07:12:43.081Z,52.49
2018-09-08T07:15:11.795Z,51.87
2018-09-08T07:17:40.157Z,50.52
2018-09-08T07:20:08.724Z,49.84
2018-09-08T07:22:37.142Z,50.99
2018-09-08T07:25:06.582Z,49.11
2018-09-08T07:27:34.921Z,49.44
2018-09-08T07:30:03.262Z,45.85
2018-09-08T07:32:31.616Z,47.53
2018-09-08T07:34:59.961Z,46.06
2018-09-08T07:37:28.379Z,42.99
2018-09-08T07:39:56.679Z,43.28
2018-09-08T07:42:25.020Z,43.63
2018-09-08T07:44:53.422Z,42.59
2018-09-08T07:47:21.804Z,39.06
2018-09-08T07:49:50.168Z,41.60
2018-09-08T07:52:18.647Z,42.94
2018-09-08T07:54:47.012Z,38.49
2018-09-08T07:57:15.367Z,40.29
2018-09-08T07:59:43.745Z,39.69
2018-09-08T08:02:12.127Z,40.77
2018-09-08T08:04:40.476Z,39.59
2018-09-08T08:07:14.201Z,39.34
2018-09-08T08:09:43.668Z,40.21
2018-09-08T08:12:12.264Z,36.77
2018-09-08T08:14:40.848Z,38.36
2018-09-08T08:17:09.361Z,39.52
2018-09-08T08:19:38.120Z,39.10
2018-09-08T08:22:06.503Z,39.32
2018-09-08T08:24:34.853Z,34.99
2018-09-08T08:27:03.182Z,37.19
2018-09-08T08:29:31.536Z,34.47
2018-09-08T08:31:59.882Z,36.50
2018-09-08T08:34:28.253Z,35.66
2018-09-08T08:36:56.667Z,36.41
2018-09-08T08:39:25.128Z,34.51
2018-09-08T08:41:53.484Z,34.45
2018-09-08T08:44:26.755Z,36.55
2018-09-08T08:46:55.100Z,34.88
2018-09-08T08:49:23.448Z,35.90
2018-09-08T08:52:03.125Z,35.37
2018-09-08T08:54:35.287Z,33.95
2018-09-08T08:57:03.849Z,35.01
2018-09-08T08:59:33.044Z,34.31
2018-09-08T09:02:01.476Z,33.52
2018-09-08T09:04:30.375Z,34.35
2018-09-08T09:13:58.905Z,33.95
2018-09-08T09:16:27.324Z,35.15
2018-09-08T09:19:07.163Z,34.00
2018-09-08T09:21:46.883Z,34.17
2018-09-08T09:24:26.969Z,35.56
2018-09-08T09:26:54.872Z,34.03
2018-09-08T09:29:23.259Z,35.49
2018-09-08T09:31:51.616Z,34.15
2018-09-08T09:34:20.005Z,35.02
2018-09-08T09:36:48.458Z,35.41
2018-09-08T09:39:16.911Z,33.80
2018-09-08T09:41:45.246Z,32.87
2018-09-08T09:44:15.131Z,34.01
2018-09-08T09:46:43.596Z,32.89
2018-09-08T09:49:11.949Z,32.67
2018-09-08T09:51:40.371Z,30.14
2018-09-08T09:54:08.755Z,29.63
2018-09-08T09:56:37.193Z,28.58
2018-09-08T09:59:05.597Z,28.81
2018-09-08T10:01:39.278Z,29.32
2018-09-08T10:04:07.685Z,29.97
2018-09-08T10:06:36.157Z,27.79
2018-09-08T10:09:05.578Z,25.33
2018-09-08T10:11:33.954Z,27.98
2018-09-08T10:14:02.336Z,28.15
2018-09-08T10:16:30.718Z,26.00
2018-09-08T10:18:59.150Z,25.70
2018-09-08T10:21:27.476Z,25.03
2018-09-08T10:24:05.153Z,25.32
2018-09-08T10:26:24.270Z,25.98
2018-09-08T10:28:52.739Z,25.32
2018-09-08T10:31:21.119Z,24.33
2018-09-08T10:33:49.500Z,25.24
2018-09-08T10:36:17.899Z,25.30
2018-09-08T10:38:46.231Z,25.57
2018-09-08T10:41:14.584Z,25.85
2018-09-08T10:43:42.918Z,25.13
2018-09-08T10:46:11.340Z,25.08
2018-09-08T10:48:39.705Z,26.40
2018-09-08T10:51:50.553Z,27.54
2018-09-08T10:54:18.986Z,29.79
2018-09-08T10:56:47.383Z,31.03
2018-09-08T10:59:15.713Z,31.16
2018-09-08T11:01:44.247Z,31.41
2018-09-08T11:04:12.495Z,31.91
2018-09-08T11:06:40.840Z,32.20
2018-09-08T11:09:09.234Z,32.33
2018-09-08T11:11:37.582Z,34.37
2018-09-08T11:14:05.935Z,33.71
2018-09-08T11:16:34.314Z,34.24
2018-09-08T11:19:02.664Z,34.34
2018-09-08T11:21:31.513Z,33.51
2018-09-08T11:23:59.851Z,36.12
2018-09-08T11:26:28.279Z,35.92
2018-09-08T11:28:56.679Z,35.79
2018-09-08T11:31:25.025Z,36.38
2018-09-08T11:33:53.382Z,37.43
2018-09-08T11:36:21.760Z,37.97
2018-09-08T11:38:50.125Z,37.85
2018-09-08T11:41:18.471Z,37.38
2018-09-08T11:43:46.847Z,36.94
2018-09-08T11:46:15.211Z,37.10
2018-09-08T11:48:43.602Z,37.34
2018-09-08T11:51:12.093Z,38.40
2018-09-08T11:53:40.744Z,37.16
2018-09-08T11:56:09.078Z,37.61
2018-09-08T11:58:37.460Z,38.87
2018-09-08T12:01:05.928Z,38.23
2018-09-08T12:03:34.295Z,38.73
2018-09-08T12:06:02.652Z,38.84
2018-09-08T12:08:31.046Z,38.45
2018-09-08T12:10:59.400Z,37.83
2018-09-08T12:13:27.929Z,38.54
2018-09-08T12:15:56.304Z,38.28
2018-09-08T12:18:24.844Z,38.17
2018-09-08T12:20:53.424Z,38.50
2018-09-08T12:23:21.822Z,39.05
2018-09-08T12:25:50.167Z,38.03
2018-09-08T12:28:18.541Z,37.91
2018-09-08T12:30:46.998Z,38.85
2018-09-08T12:33:15.319Z,38.10
2018-09-08T12:35:43.680Z,39.49
2018-09-08T12:38:12.008Z,39.52
2018-09-08T12:40:40.445Z,39.74
2018-09-08T12:43:08.890Z,38.56
2018-09-08T12:45:37.248Z,39.66
2018-09-08T12:48:05.697Z,39.46
2018-09-08T12:50:34.060Z,38.82
2018-09-08T12:53:02.421Z,40.05
2018-09-08T12:55:30.886Z,39.08
2018-09-08T12:57:59.232Z,39.27
2018-09-08T13:00:27.714Z,38.83
2018-09-08T13:02:56.080Z,39.22
2018-09-08T13:05:24.437Z,40.07
2018-09-08T13:07:52.796Z,39.31
2018-09-08T13:10:21.124Z,39.70
2018-09-08T13:12:49.450Z,40.41
2018-09-08T13:15:18.636Z,39.78
2018-09-08T13:17:46.992Z,38.59
2018-09-08T13:20:15.349Z,39.02
2018-09-08T13:22:43.996Z,38.94
2018-09-08T13:25:12.374Z,38.96
2018-09-08T13:27:40.709Z,39.20
2018-09-08T13:30:09.068Z,39.23
2018-09-08T13:32:37.451Z,39.60
2018-09-08T13:35:05.817Z,39.45
2018-09-08T13:37:34.146Z,39.91
2018-09-08T13:40:02.597Z,39.56
2018-09-08T13:42:30.868Z,39.25
2018-09-08T13:44:59.221Z,38.65
2018-09-08T13:47:27.630Z,39.54
2018-09-08T13:49:56.129Z,39.30
2018-09-08T13:52:24.476Z,40.63
2018-09-08T13:54:52.868Z,40.28
2018-09-08T13:57:21.262Z,39.96
2018-09-08T13:59:49.631Z,39.40
2018-09-08T14:02:18.214Z,39.15
2018-09-08T14:04:46.593Z,40.38
2018-09-08T14:07:14.960Z,40.48
2018-09-08T14:09:43.361Z,41.02
2018-09-08T14:12:11.712Z,40.50
2018-09-08T14:14:40.076Z,39.67
2018-09-08T14:17:08.474Z,40.04
2018-09-08T14:19:36.837Z,40.64
2018-09-08T14:22:05.214Z,41.37
2018-09-08T14:24:33.580Z,41.49
2018-09-08T14:27:01.983Z,40.77
2018-09-08T14:29:30.373Z,40.80
2018-09-08T14:31:58.740Z,40.95
2018-09-08T14:34:27.068Z,41.25
2018-09-08T14:36:55.415Z,40.29
2018-09-08T14:39:23.769Z,40.37
2018-09-08T14:41:52.090Z,40.72
2018-09-08T14:44:20.526Z,41.24
2018-09-08T14:46:48.889Z,41.00
2018-09-08T14:49:17.251Z,40.83
2018-09-08T14:51:45.601Z,40.81
2018-09-08T14:54:13.953Z,40.66
2018-09-08T14:56:42.390Z,40.65
2018-09-08T14:59:10.842Z,41.85
2018-09-08T15:01:39.268Z,42.45
2018-09-08T15:04:07.727Z,41.69
2018-09-08T15:06:36.120Z,41.91
2018-09-08T15:09:06.512Z,41.60
2018-09-08T15:11:35.080Z,41.80
2018-09-08T15:14:03.459Z,41.25
2018-09-08T15:16:32.042Z,40.99
2018-09-08T15:19:00.409Z,41.86
2018-09-08T15:21:28.777Z,41.16
2018-09-08T15:23:57.811Z,41.65
2018-09-08T15:26:26.362Z,41.92
2018-09-08T15:28:54.739Z,41.59
2018-09-08T15:31:23.220Z,41.63
2018-09-08T15:33:51.631Z,42.54
2018-09-08T15:36:19.975Z,42.80
2018-09-08T15:38:48.378Z,41.62
2018-09-08T15:41:16.770Z,41.97
2018-09-08T15:43:45.180Z,41.51
2018-09-08T15:46:13.531Z,41.17
2018-09-08T15:48:41.890Z,42.28
2018-09-08T15:51:10.287Z,42.66
2018-09-08T15:53:38.711Z,43.09
2018-09-08T15:56:07.192Z,42.05
2018-09-08T15:58:36.050Z,42.57
2018-09-08T16:01:04.554Z,42.18
2018-09-08T16:03:32.925Z,42.70
2018-09-08T16:06:01.315Z,42.96
2018-09-08T16:08:29.745Z,44.48
2018-09-08T16:10:58.214Z,43.48
2018-09-08T16:13:26.724Z,42.91
2018-09-08T16:15:55.062Z,43.48
2018-09-08T16:18:23.449Z,42.84
2018-09-08T16:20:51.792Z,43.57
2018-09-08T16:23:20.271Z,43.16
2018-09-08T16:25:48.668Z,41.87
2018-09-08T16:28:18.113Z,42.66
2018-09-08T16:30:46.711Z,43.03
2018-09-08T16:33:15.173Z,42.91
2018-09-08T16:35:43.541Z,43.22
2018-09-08T16:38:11.919Z,43.79
2018-09-08T16:40:40.329Z,43.98
2018-09-08T16:43:08.708Z,44.08
2018-09-08T16:45:37.313Z,45.37
2018-09-08T16:48:05.924Z,44.55
2018-09-08T16:50:34.340Z,44.55
2018-09-08T16:53:02.834Z,44.99
2018-09-08T16:55:31.284Z,45.31
2018-09-08T16:58:00.227Z,46.16
2018-09-08T17:00:28.709Z,45.41
2018-09-08T17:02:57.140Z,45.20
2018-09-08T17:05:25.516Z,45.89
2018-09-08T17:07:53.876Z,45.72
2018-09-08T17:10:22.243Z,45.81
2018-09-08T17:12:50.586Z,46.23
2018-09-08T17:15:18.932Z,47.60
2018-09-08T17:17:47.279Z,46.94
2018-09-08T17:20:15.656Z,46.38
2018-09-08T17:22:44.032Z,45.88
2018-09-08T17:25:12.422Z,47.33
2018-09-08T17:27:41.303Z,47.66
2018-09-08T17:30:09.720Z,47.56
2018-09-08T17:32:38.165Z,47.07
2018-09-08T17:35:06.715Z,47.41
2018-09-08T17:37:35.060Z,48.17
2018-09-08T17:40:03.372Z,47.60
2018-09-08T17:42:31.715Z,48.09
2018-09-08T17:45:00.098Z,47.69
2018-09-08T17:47:28.446Z,47.87
2018-09-08T17:49:56.788Z,49.16
2018-09-08T17:52:25.131Z,48.25
2018-09-08T17:54:53.474Z,48.62
2018-09-08T17:57:21.889Z,49.38
2018-09-08T17:59:50.230Z,48.52
2018-09-08T18:02:19.134Z,48.31
2018-09-08T18:04:47.488Z,50.13
2018-09-08T18:07:17.696Z,49.50
2018-09-08T18:09:46.364Z,49.28
2018-09-08T18:12:14.967Z,51.09
2018-09-08T18:14:43.453Z,50.58
2018-09-08T18:17:12.346Z,49.89
2018-09-08T18:19:40.749Z,49.39
2018-09-08T18:22:09.396Z,50.44
2018-09-08T18:24:37.800Z,50.40
2018-09-08T18:27:06.365Z,51.74
2018-09-08T18:29:34.694Z,51.50
2018-09-08T18:32:03.054Z,50.77
2018-09-08T18:34:32.079Z,51.23
2018-09-08T18:37:00.439Z,51.98
2018-09-08T18:39:28.795Z,51.18
2018-09-08T18:41:57.254Z,52.19
2018-09-08T18:44:25.598Z,52.37
2018-09-08T18:46:53.950Z,51.91
2018-09-08T18:49:22.323Z,52.24
2018-09-08T18:51:50.768Z,53.01
2018-09-08T18:54:19.126Z,53.49
2018-09-08T18:56:47.476Z,54.02
2018-09-08T18:59:15.816Z,54.01
2018-09-08T19:01:44.697Z,53.80
2018-09-08T19:04:13.146Z,54.14
2018-09-08T19:06:41.726Z,55.52
2018-09-08T19:09:10.212Z,54.26
2018-09-08T19:11:38.591Z,54.18
2018-09-08T19:14:11.095Z,53.80
2018-09-08T19:16:39.445Z,53.95
2018-09-08T19:19:07.807Z,56.32
2018-09-08T19:21:36.137Z,54.17
2018-09-08T19:24:09.864Z,55.90
2018-09-08T19:26:38.389Z,56.46
2018-09-08T19:29:11.956Z,55.86
2018-09-08T19:31:40.459Z,55.78
2018-09-08T19:34:08.850Z,57.06
2018-09-08T19:36:37.194Z,56.43
2018-09-08T19:39:08.046Z,55.68
2018-09-08T19:41:36.868Z,55.49
2018-09-08T19:44:05.247Z,55.52
2018-09-08T19:46:39.082Z,55.39
2018-09-08T19:49:07.522Z,56.83
2018-09-08T19:51:36.853Z,56.31
2018-09-08T19:54:05.209Z,57.09
2018-09-08T19:56:39.010Z,57.93
2018-09-08T19:59:07.349Z,58.43
2018-09-08T20:01:35.733Z,57.49
2018-09-08T20:04:04.116Z,57.99
2018-09-08T20:06:32.529Z,57.41
2018-09-08T20:09:00.871Z,57.86
2018-09-08T20:11:29.252Z,57.18
2018-09-08T20:13:57.630Z,58.47
2018-09-08T20:16:26.107Z,57.25
2018-09-08T20:18:54.455Z,58.10
2018-09-08T20:21:22.803Z,57.73
2018-09-08T20:23:51.182Z,57.38
2018-09-08T20:26:19.540Z,58.71
2018-09-08T20:28:48.001Z,57.11
2018-09-08T20:31:16.271Z,57.84
2018-09-08T20:33:44.640Z,58.04
2018-09-08T20:36:13.004Z,58.12
2018-09-08T20:38:41.410Z,57.60
2018-09-08T20:41:09.765Z,57.59
2018-09-08T20:43:38.186Z,57.83
2018-09-08T20:46:06.800Z,56.37
2018-09-08T20:48:35.245Z,56.81
2018-09-08T20:51:03.610Z,57.84
2018-09-08T20:53:32.005Z,58.36
2018-09-08T20:56:00.388Z,57.68
2018-09-08T20:58:28.721Z,57.03
2018-09-08T21:00:57.129Z,58.12
2018-09-08T21:03:25.477Z,55.88
2018-09-08T21:05:53.831Z,56.34
2018-09-08T21:08:22.210Z,56.09
2018-09-08T21:10:50.694Z,56.72
2018-09-08T21:13:19.036Z,56.95
2018-09-08T21:15:47.557Z,57.01
2018-09-08T21:18:16.343Z,56.94
2018-09-08T21:20:44.804Z,56.05
2018-09-08T21:23:13.305Z,54.77
2018-09-08T21:25:41.653Z,55.46
2018-09-08T21:28:10.064Z,54.44
2018-09-08T21:30:38.645Z,53.94
2018-09-08T21:33:07.151Z,55.02
2018-09-08T21:35:35.506Z,53.90
2018-09-08T21:38:03.883Z,54.61
2018-09-08T21:40:32.233Z,54.93
2018-09-08T21:43:00.579Z,55.31
2018-09-08T21:45:28.926Z,53.91
2018-09-08T21:47:57.249Z,54.41
2018-09-08T21:50:25.708Z,54.70
2018-09-08T21:52:54.051Z,54.36
2018-09-08T21:55:22.390Z,53.45
2018-09-08T21:57:50.760Z,54.54
2018-09-08T22:00:19.167Z,53.49
2018-09-08T22:02:47.500Z,54.32
2018-09-08T22:05:15.862Z,54.37
2018-09-08T22:07:44.255Z,54.13
2018-09-08T22:10:12.630Z,54.49
2018-09-08T22:12:40.965Z,54.79
2018-09-08T22:15:09.378Z,55.38
2018-09-08T22:17:37.719Z,53.91
2018-09-08T22:20:06.124Z,54.50
2018-09-08T22:22:34.546Z,55.14
2018-09-08T22:25:03.012Z,54.95
2018-09-08T22:27:31.364Z,54.97
2018-09-08T22:29:59.852Z,55.22
2018-09-08T22:32:28.204Z,54.52
2018-09-08T22:34:56.609Z,54.83
2018-09-08T22:37:24.956Z,54.62
2018-09-08T22:39:53.290Z,55.03
2018-09-08T22:42:21.620Z,54.05
2018-09-08T22:44:49.918Z,54.04
2018-09-08T22:47:18.239Z,53.75
2018-09-08T22:49:46.669Z,53.74
2018-09-08T22:52:15.001Z,54.04
2018-09-08T22:54:43.323Z,54.48
2018-09-08T22:57:11.649Z,56.05
2018-09-08T22:59:40.006Z,54.33
2018-09-08T23:02:08.404Z,54.54
2018-09-08T23:04:36.761Z,53.75
2018-09-08T23:07:05.164Z,54.45
2018-09-08T23:09:33.510Z,53.92
2018-09-08T23:12:01.842Z,54.83
2018-09-08T23:14:30.168Z,54.80
2018-09-08T23:16:58.547Z,53.18
2018-09-08T23:19:26.893Z,54.19
2018-09-08T23:21:55.248Z,53.98
2018-09-08T23:24:23.652Z,55.02
2018-09-08T23:26:51.962Z,54.87
2018-09-08T23:29:20.392Z,53.73
2018-09-08T23:31:48.736Z,54.50
2018-09-08T23:34:17.229Z,53.55
2018-09-08T23:36:45.620Z,53.28
2018-09-08T23:39:14.065Z,53.34
2018-09-08T23:41:42.490Z,53.73
2018-09-08T23:44:10.845Z,53.45
2018-09-08T23:46:39.150Z,53.85
2018-09-08T23:49:07.520Z,53.49
2018-09-08T23:51:35.879Z,53.47
2018-09-08T23:54:04.222Z,53.80
2018-09-08T23:56:32.613Z,54.12
2018-09-08T23:59:02.065Z,54.87
